Time;durP1;ratioP1;P1;durP2;ratioP2;P2;SDS_P1;SDS_P2;PMS_P1;PMS_P2;Temp;Humidity;BMP_temperature;BMP_pressure;BME280_temperature;BME280_humidity;BME280_pressure;Samples;Min_cycle;Max_cycle;Signal;HPM_P1;HPM_P2
2022/09/09 00:02:04;;;;;;;16.65;10.13;;;14.80;99.90;;;;;;5021791;28;20438;-81
2022/09/09 00:04:36;;;;;;;14.32;10.60;;;14.80;99.90;;;;;;5071861;28;20053;-81
2022/09/09 00:07:17;;;;;;;14.40;10.15;;;14.80;99.90;;;;;;5038181;28;20161;-81
2022/09/09 00:10:14;;;;;;;15.85;9.85;;;14.80;99.90;;;;;;5037894;28;20047;-81
2022/09/09 00:13:01;;;;;;;15.57;9.85;;;14.80;99.90;;;;;;5038296;28;20048;-82
2022/09/09 00:15:47;;;;;;;16.90;9.98;;;14.70;99.90;;;;;;5071838;28;20091;-81
2022/09/09 00:18:25;;;;;;;16.42;10.60;;;14.70;99.90;;;;;;5038240;28;20412;-81
2022/09/09 00:21:07;;;;;;;18.45;10.13;;;14.70;99.90;;;;;;5071601;28;20389;-81
2022/09/09 00:23:39;;;;;;;15.63;10.25;;;14.70;99.90;;;;;;5038315;28;20050;-81
2022/09/09 00:26:30;;;;;;;18.02;10.45;;;14.70;99.90;;;;;;5054648;28;20054;-81
2022/09/09 00:29:09;;;;;;;19.50;10.93;;;14.70;99.90;;;;;;5037951;28;20047;-81
2022/09/09 00:31:37;;;;;;;20.02;11.68;;;14.70;99.90;;;;;;5038069;28;20034;-81
2022/09/09 00:34:16;;;;;;;22.65;10.68;;;14.60;99.90;;;;;;5038079;28;20058;-81
2022/09/09 00:36:43;;;;;;;17.83;10.23;;;14.60;99.90;;;;;;5037872;28;20042;-81
2022/09/09 00:39:25;;;;;;;18.08;10.90;;;14.60;99.90;;;;;;5037635;28;20057;-81
2022/09/09 00:42:09;;;;;;;14.52;10.90;;;14.50;99.90;;;;;;5070999;28;20084;-81
2022/09/09 00:44:37;;;;;;;15.43;10.38;;;14.40;99.90;;;;;;5071479;28;20081;-81
2022/09/09 00:47:31;;;;;;;15.13;9.75;;;14.50;99.90;;;;;;5054512;28;20074;-82
2022/09/09 00:50:15;;;;;;;19.63;10.25;;;14.40;99.90;;;;;;5037993;28;20047;-81
2022/09/09 00:52:58;;;;;;;16.20;10.25;;;14.40;99.90;;;;;;5071411;28;20046;-82
2022/09/09 00:55:53;;;;;;;15.18;9.93;;;14.30;99.90;;;;;;5070907;28;20049;-82
2022/09/09 00:58:19;;;;;;;15.93;10.60;;;14.30;99.90;;;;;;5070996;28;20177;-81
2022/09/09 01:00:51;;;;;;;14.52;10.85;;;14.30;99.90;;;;;;5071410;28;20074;-81
2022/09/09 01:03:36;;;;;;;14.32;10.52;;;14.20;99.90;;;;;;5071097;28;20043;-81
2022/09/09 01:06:13;;;;;;;16.42;10.73;;;14.30;99.90;;;;;;5037459;28;20050;-81
2022/09/09 01:09:23;;;;;;;14.75;9.55;;;14.20;99.90;;;;;;5020584;28;20074;-81
2022/09/09 01:12:07;;;;;;;16.95;10.23;;;14.20;99.90;;;;;;5071779;28;20043;-80
2022/09/09 01:14:36;;;;;;;17.42;11.13;;;14.10;99.90;;;;;;5054269;28;20046;-81
2022/09/09 01:17:17;;;;;;;14.63;9.40;;;14.10;99.90;;;;;;5054667;28;20130;-81
2022/09/09 01:19:42;;;;;;;15.70;9.85;;;14.10;99.90;;;;;;5037241;28;20058;-81
2022/09/09 01:22:45;;;;;;;15.07;9.98;;;14.10;99.90;;;;;;5038022;28;20058;-81
2022/09/09 01:25:28;;;;;;;15.32;10.95;;;14.10;99.90;;;;;;5074475;28;20046;-81
2022/09/09 01:27:58;;;;;;;17.77;10.00;;;14.00;99.90;;;;;;5074710;28;20047;-81
2022/09/09 01:30:25;;;;;;;16.10;10.20;;;14.00;99.90;;;;;;5041127;28;20492;-81
2022/09/09 01:32:58;;;;;;;17.13;10.27;;;14.00;99.90;;;;;;5057741;28;20112;-80
2022/09/09 01:35:26;;;;;;;16.98;10.40;;;14.00;99.90;;;;;;5074621;28;20061;-81
2022/09/09 01:37:52;;;;;;;13.05;10.05;;;14.00;99.90;;;;;;5074251;28;20081;-81
2022/09/09 01:40:19;;;;;;;17.15;10.30;;;14.00;99.90;;;;;;5057375;28;20074;-81
2022/09/09 01:42:44;;;;;;;13.38;10.18;;;14.00;99.90;;;;;;5040655;28;20051;-81
2022/09/09 01:45:10;;;;;;;16.37;9.70;;;14.00;99.90;;;;;;5074007;28;20111;-81
2022/09/09 01:47:36;;;;;;;16.17;10.38;;;14.00;99.90;;;;;;5041103;28;20282;-81
2022/09/09 01:50:02;;;;;;;15.30;9.93;;;13.90;99.90;;;;;;5040564;28;20039;-81
2022/09/09 01:52:30;;;;;;;15.02;10.77;;;13.90;99.90;;;;;;5073248;28;20113;-81
2022/09/09 01:54:56;;;;;;;15.50;9.98;;;13.90;99.90;;;;;;5040563;28;20488;-81
2022/09/09 01:57:39;;;;;;;15.43;10.48;;;13.90;99.90;;;;;;5074237;28;20054;-81
2022/09/09 02:00:11;;;;;;;14.07;9.52;;;13.90;99.90;;;;;;5040819;28;20065;-80
2022/09/09 02:02:52;;;;;;;15.40;10.18;;;13.90;99.90;;;;;;5057138;28;20043;-81
2022/09/09 02:05:42;;;;;;;16.85;10.65;;;13.80;99.90;;;;;;5057384;28;20046;-81
2022/09/09 02:08:13;;;;;;;18.45;10.95;;;13.90;99.90;;;;;;5057013;28;20042;-81
2022/09/09 02:10:59;;;;;;;16.55;10.68;;;13.90;99.90;;;;;;5074255;28;20098;-81
2022/09/09 02:13:25;;;;;;;19.25;10.75;;;13.90;99.90;;;;;;5040477;28;20042;-81
2022/09/09 02:15:53;;;;;;;18.40;11.45;;;13.90;99.90;;;;;;5074118;28;20161;-81
2022/09/09 02:18:27;;;;;;;19.17;11.32;;;13.90;99.90;;;;;;5073424;28;20133;-81
2022/09/09 02:20:53;;;;;;;17.33;11.45;;;13.90;99.90;;;;;;5073185;28;20134;-81
2022/09/09 02:23:20;;;;;;;19.27;11.60;;;14.00;99.90;;;;;;5056600;28;20054;-82
2022/09/09 02:25:48;;;;;;;19.70;12.45;;;14.00;99.90;;;;;;5040222;28;20511;-81
2022/09/09 02:28:16;;;;;;;18.55;11.20;;;14.00;99.90;;;;;;5073967;28;20126;-80
2022/09/09 02:30:46;;;;;;;20.17;11.20;;;14.00;99.90;;;;;;5039968;28;20057;-81
2022/09/09 02:33:13;;;;;;;19.10;10.43;;;14.00;99.90;;;;;;5023181;28;20047;-82
2022/09/09 02:35:42;;;;;;;19.80;10.80;;;14.00;99.90;;;;;;5039885;28;20096;-81
2022/09/09 02:38:13;;;;;;;14.07;10.32;;;14.00;99.90;;;;;;5056618;28;20551;-81
2022/09/09 02:40:39;;;;;;;17.35;10.60;;;14.00;99.90;;;;;;5056480;28;20051;-82
2022/09/09 02:43:06;;;;;;;17.92;10.38;;;14.00;99.90;;;;;;5072684;28;20051;-80
2022/09/09 02:46:01;;;;;;;16.73;11.00;;;14.00;99.90;;;;;;5073826;28;20085;-81
2022/09/09 02:48:57;;;;;;;18.77;11.00;;;14.10;99.90;;;;;;5031113;28;20138;-81
2022/09/09 02:51:50;;;;;;;19.20;11.05;;;14.10;99.90;;;;;;5022906;28;20077;-81
2022/09/09 02:54:24;;;;;;;20.00;10.55;;;14.10;99.90;;;;;;5072968;28;20050;-80
2022/09/09 02:56:54;;;;;;;16.17;10.27;;;14.10;99.90;;;;;;5073053;28;20047;-81
2022/09/09 02:59:21;;;;;;;18.33;10.50;;;14.10;99.90;;;;;;5039270;28;20049;-80
2022/09/09 03:01:47;;;;;;;18.73;10.88;;;14.10;99.90;;;;;;5022680;28;20499;-80
2022/09/09 03:04:13;;;;;;;14.83;9.87;;;14.10;99.90;;;;;;5055832;28;20047;-81
2022/09/09 03:06:39;;;;;;;16.40;10.25;;;14.10;99.90;;;;;;5055995;28;20276;-81
2022/09/09 03:09:05;;;;;;;17.95;10.13;;;14.10;99.90;;;;;;5056087;28;20054;-80
2022/09/09 03:11:31;;;;;;;19.08;10.85;;;14.20;99.90;;;;;;5039172;28;20419;-80
2022/09/09 03:13:56;;;;;;;14.80;10.33;;;14.10;99.90;;;;;;5055681;28;20049;-81
2022/09/09 03:16:23;;;;;;;16.50;10.47;;;14.10;99.90;;;;;;5072004;28;20290;-81
2022/09/09 03:18:49;;;;;;;18.83;9.90;;;14.20;99.90;;;;;;5038753;28;20051;-81
2022/09/09 03:21:15;;;;;;;14.90;8.75;;;14.20;99.90;;;;;;5039382;28;20137;-81
2022/09/09 03:23:41;;;;;;;14.15;8.95;;;14.20;99.90;;;;;;5072048;28;20484;-81
2022/09/09 03:26:07;;;;;;;15.30;9.68;;;14.20;99.90;;;;;;5038737;28;20100;-81
2022/09/09 03:28:32;;;;;;;17.13;10.13;;;14.20;99.90;;;;;;5054992;28;20076;-81
2022/09/09 03:31:00;;;;;;;19.02;9.95;;;14.20;99.90;;;;;;5055059;28;20046;-81
2022/09/09 03:33:25;;;;;;;13.38;9.48;;;14.30;99.90;;;;;;5071978;28;20135;-81
2022/09/09 03:35:51;;;;;;;16.20;8.38;;;14.30;99.90;;;;;;5054956;28;20511;-81
2022/09/09 03:38:17;;;;;;;14.55;8.55;;;14.30;99.90;;;;;;5055053;28;20381;-81
2022/09/09 03:40:51;;;;;;;15.60;8.68;;;14.40;99.90;;;;;;5038556;28;20047;-81
2022/09/09 03:43:17;;;;;;;16.13;7.30;;;14.40;99.90;;;;;;5055222;28;20043;-81
2022/09/09 03:45:48;;;;;;;13.55;7.30;;;14.40;99.90;;;;;;5038016;28;20050;-81
2022/09/09 03:48:15;;;;;;;13.68;7.20;;;14.40;99.90;;;;;;5039166;28;20492;-81
2022/09/09 03:50:49;;;;;;;13.73;7.00;;;14.40;99.90;;;;;;5055066;28;20038;-81
2022/09/09 03:53:17;;;;;;;12.00;7.22;;;14.40;99.90;;;;;;5071905;28;20045;-81
2022/09/09 03:55:47;;;;;;;11.82;6.30;;;14.40;99.90;;;;;;5072119;28;20106;-81
2022/09/09 03:58:15;;;;;;;11.48;6.10;;;14.40;99.90;;;;;;5072213;28;20045;-81
2022/09/09 04:00:42;;;;;;;11.20;5.70;;;14.40;99.90;;;;;;5055361;28;20065;-81
2022/09/09 04:03:11;;;;;;;8.02;5.35;;;14.40;99.90;;;;;;5038335;28;20484;-81
2022/09/09 04:05:42;;;;;;;10.48;5.60;;;14.50;99.90;;;;;;5055363;28;20459;-81
2022/09/09 04:08:08;;;;;;;9.07;4.80;;;14.50;99.90;;;;;;5054916;28;20119;-81
2022/09/09 04:10:36;;;;;;;8.65;4.68;;;14.50;99.90;;;;;;5038524;28;20081;-81
2022/09/09 04:13:04;;;;;;;10.80;5.13;;;14.50;99.90;;;;;;5037879;28;20039;-81
2022/09/09 04:15:30;;;;;;;9.43;4.97;;;14.50;99.90;;;;;;5055383;28;20129;-80
2022/09/09 04:17:56;;;;;;;;;;;14.60;99.90;;;;;;5038056;28;20547;-80
2022/09/09 04:20:22;;;;;;;6.75;4.15;;;14.60;99.90;;;;;;5005009;28;19925;-80
2022/09/09 04:22:48;;;;;;;11.45;4.40;;;14.50;99.90;;;;;;5054777;28;20046;-80
2022/09/09 04:25:14;;;;;;;9.32;4.70;;;14.60;99.90;;;;;;5038110;28;20043;-81
2022/09/09 04:27:42;;;;;;;10.40;4.35;;;14.60;99.90;;;;;;5054604;28;20060;-80
2022/09/09 04:30:09;;;;;;;7.00;4.47;;;14.60;99.90;;;;;;5038139;28;20395;-81
2022/09/09 04:32:35;;;;;;;8.60;4.30;;;14.60;99.90;;;;;;5037972;28;20411;-81
2022/09/09 04:35:01;;;;;;;6.15;4.32;;;14.60;99.90;;;;;;5054564;28;20039;-80
2022/09/09 04:37:27;;;;;;;7.10;4.78;;;14.60;99.90;;;;;;5037988;28;20047;-81
2022/09/09 04:39:52;;;;;;;7.53;4.60;;;14.60;99.90;;;;;;5037970;28;20043;-80
2022/09/09 04:42:19;;;;;;;10.50;5.47;;;14.50;99.90;;;;;;5037764;28;20043;-80
2022/09/09 04:44:44;;;;;;;;;;;14.50;99.90;;;;;;5038199;28;20047;-80
2022/09/09 04:47:10;;;;;;;12.77;5.95;;;14.60;99.90;;;;;;5054493;28;20374;-80
2022/09/09 04:49:36;;;;;;;8.70;5.53;;;14.50;99.90;;;;;;5038422;28;20050;-81
2022/09/09 04:52:03;;;;;;;9.02;5.30;;;14.50;99.90;;;;;;5037714;28;20053;-80
2022/09/09 04:54:29;;;;;;;9.68;5.13;;;14.50;99.90;;;;;;5037583;28;20133;-80
2022/09/09 04:56:55;;;;;;;8.80;5.70;;;14.50;99.90;;;;;;5071838;28;20039;-81
2022/09/09 04:59:21;;;;;;;9.40;5.43;;;14.60;99.90;;;;;;5041525;28;20043;-81
2022/09/09 05:01:47;;;;;;;;;;;14.60;99.90;;;;;;5042198;28;20576;-81
2022/09/09 05:04:16;;;;;;;10.38;5.97;;;14.60;99.90;;;;;;5041578;28;19922;-81
2022/09/09 05:06:42;;;;;;;9.70;6.28;;;14.50;99.90;;;;;;5041269;28;20042;-81
2022/09/09 05:09:08;;;;;;;12.23;6.80;;;14.60;99.90;;;;;;5057441;28;21073;-81
2022/09/09 05:11:38;;;;;;;10.65;6.90;;;14.50;99.90;;;;;;5074873;28;20061;-81
2022/09/09 05:14:04;;;;;;;11.30;7.50;;;14.50;99.90;;;;;;5058401;28;20442;-81
2022/09/09 05:16:30;;;;;;;11.82;7.70;;;14.50;99.90;;;;;;5041583;28;20373;-81
2022/09/09 05:18:56;;;;;;;12.95;7.60;;;14.50;99.90;;;;;;5040862;28;20446;-81
2022/09/09 05:21:24;;;;;;;13.32;7.63;;;14.50;99.90;;;;;;5057995;28;20081;-81
2022/09/09 05:23:53;;;;;;;12.38;7.50;;;14.50;99.90;;;;;;5057626;28;20121;-81
2022/09/09 05:26:21;;;;;;;14.70;8.18;;;14.50;99.90;;;;;;5058206;28;20045;-81
2022/09/09 05:28:46;;;;;;;12.43;7.78;;;14.50;99.90;;;;;;5041445;28;20051;-81
2022/09/09 05:31:17;;;;;;;14.25;8.75;;;14.50;99.90;;;;;;5041030;28;20031;-81
2022/09/09 05:33:45;;;;;;;15.25;8.55;;;14.50;99.90;;;;;;5041272;28;20450;-81
2022/09/09 05:36:14;;;;;;;14.43;8.52;;;14.50;99.90;;;;;;5057557;28;20565;-81
2022/09/09 05:38:40;;;;;;;13.23;8.68;;;14.40;99.90;;;;;;5057549;28;20057;-81
2022/09/09 05:41:06;;;;;;;;;;;14.50;99.90;;;;;;5075202;28;20508;-81
2022/09/09 05:43:33;;;;;;;18.52;9.85;;;14.50;99.90;;;;;;5040709;28;19922;-81
2022/09/09 05:46:07;;;;;;;14.43;9.65;;;14.50;99.90;;;;;;5040671;28;20104;-81
2022/09/09 05:48:39;;;;;;;15.57;9.85;;;14.50;99.90;;;;;;5074588;28;20175;-81
2022/09/09 05:51:07;;;;;;;14.60;9.50;;;14.40;99.90;;;;;;5040816;28;20042;-81
2022/09/09 05:53:34;;;;;;;14.43;9.07;;;14.50;99.90;;;;;;5057308;28;20520;-81
2022/09/09 05:56:11;;;;;;;15.68;9.80;;;14.50;99.90;;;;;;5040420;28;20070;-81
2022/09/09 05:58:37;;;;;;;;;;;14.50;99.90;;;;;;5057766;28;20050;-81
2022/09/09 06:01:13;;;;;;;12.75;8.95;;;14.50;99.90;;;;;;5057288;28;19918;-81
2022/09/09 06:03:41;;;;;;;14.70;9.88;;;14.50;99.90;;;;;;5074161;28;20047;-81
2022/09/09 06:06:09;;;;;;;17.75;9.77;;;14.60;99.90;;;;;;5040375;28;20058;-81
2022/09/09 06:08:43;;;;;;;17.13;9.55;;;14.60;99.90;;;;;;5039656;28;20092;-81
2022/09/09 06:11:18;;;;;;;15.20;9.30;;;14.60;99.90;;;;;;5073671;28;20051;-81
2022/09/09 06:13:44;;;;;;;14.40;9.23;;;14.60;99.90;;;;;;5040255;28;20061;-81
2022/09/09 06:16:11;;;;;;;13.40;8.43;;;14.60;99.90;;;;;;5056679;28;20049;-81
2022/09/09 06:18:38;;;;;;;11.98;8.93;;;14.60;99.90;;;;;;5023459;28;20034;-81
2022/09/09 06:21:07;;;;;;;11.23;8.25;;;14.70;99.90;;;;;;5087177;28;20088;-81
2022/09/09 06:23:37;;;;;;;13.30;8.52;;;14.70;99.90;;;;;;5053395;28;20505;-82
2022/09/09 06:26:02;;;;;;;14.60;8.45;;;14.70;99.90;;;;;;5053184;28;20104;-81
2022/09/09 06:28:28;;;;;;;12.67;8.93;;;14.70;99.90;;;;;;5070110;28;20080;-82
2022/09/09 06:30:58;;;;;;;12.35;7.82;;;14.70;99.90;;;;;;5070144;28;20119;-82
2022/09/09 06:33:24;;;;;;;14.75;8.88;;;14.80;99.90;;;;;;5053294;28;20055;-81
2022/09/09 06:35:54;;;;;;;12.00;7.53;;;14.80;99.90;;;;;;5070296;28;20094;-82
2022/09/09 06:38:22;;;;;;;13.23;8.40;;;14.80;99.90;;;;;;5053969;28;20037;-81
2022/09/09 06:40:55;;;;;;;11.40;7.53;;;15.00;99.90;;;;;;5055319;28;20120;-81
2022/09/09 06:43:22;;;;;;;11.02;7.45;;;15.00;99.90;;;;;;5089049;28;20045;-81
2022/09/09 06:46:03;;;;;;;9.68;7.88;;;15.00;99.90;;;;;;5053350;28;20041;-82
2022/09/09 06:48:29;;;;;;;9.73;7.18;;;15.10;99.90;;;;;;5070194;28;20052;-80
2022/09/09 06:51:06;;;;;;;9.73;7.05;;;15.10;99.90;;;;;;5069998;28;20044;-80
2022/09/09 06:53:34;;;;;;;12.32;7.70;;;15.20;99.90;;;;;;5069682;28;20041;-81
2022/09/09 06:56:23;;;;;;;10.27;7.55;;;15.30;99.90;;;;;;5053505;28;20406;-80
2022/09/09 06:58:51;;;;;;;8.63;6.53;;;15.40;99.90;;;;;;5053210;28;20048;-81
2022/09/09 07:01:20;;;;;;;9.93;7.07;;;15.40;99.90;;;;;;5054320;28;20041;-81
2022/09/09 07:03:51;;;;;;;11.35;7.00;;;15.40;99.90;;;;;;5086539;28;20537;-81
2022/09/09 07:06:20;;;;;;;8.77;6.45;;;15.40;99.90;;;;;;5086655;28;20048;-80
2022/09/09 07:09:00;;;;;;;9.30;7.03;;;15.40;99.90;;;;;;5069541;28;20116;-81
2022/09/09 07:11:28;;;;;;;10.55;6.82;;;15.40;99.90;;;;;;5052962;28;20045;-81
2022/09/09 07:13:54;;;;;;;11.18;7.22;;;15.40;99.90;;;;;;5052650;28;20037;-82
2022/09/09 07:16:24;;;;;;;12.77;6.97;;;15.40;99.90;;;;;;5052525;28;20551;-81
2022/09/09 07:18:50;;;;;;;10.90;6.75;;;15.40;99.90;;;;;;5052428;28;20132;-81
2022/09/09 07:21:17;;;;;;;8.75;5.93;;;15.40;99.90;;;;;;5084801;28;20057;-81
2022/09/09 07:23:43;;;;;;;9.95;6.85;;;15.50;99.90;;;;;;5068564;28;20088;-81
2022/09/09 07:26:20;;;;;;;8.32;6.50;;;15.50;99.90;;;;;;5052461;28;20127;-81
2022/09/09 07:28:47;;;;;;;10.75;6.47;;;15.60;99.90;;;;;;5085892;28;20120;-81
2022/09/09 07:31:23;;;;;;;9.00;6.30;;;15.60;99.90;;;;;;5068764;28;20045;-81
2022/09/09 07:33:49;;;;;;;9.68;6.30;;;15.70;99.90;;;;;;5069080;28;20358;-81
2022/09/09 07:36:17;;;;;;;9.38;6.70;;;15.80;99.90;;;;;;5085643;28;20133;-81
2022/09/09 07:38:48;;;;;;;9.73;5.57;;;15.90;99.90;;;;;;5086102;28;20403;-81
2022/09/09 07:41:17;;;;;;;8.45;6.30;;;16.00;99.90;;;;;;5052385;28;20059;-81
2022/09/09 07:43:46;;;;;;;8.68;5.75;;;16.10;99.90;;;;;;5068860;28;20041;-80
2022/09/09 07:46:13;;;;;;;8.50;5.95;;;16.10;99.90;;;;;;5085615;28;20029;-81
2022/09/09 07:48:44;;;;;;;7.70;5.78;;;16.20;99.90;;;;;;5068860;28;20045;-81
2022/09/09 07:51:18;;;;;;;8.02;5.75;;;16.30;99.90;;;;;;5068792;28;20119;-81
2022/09/09 07:53:44;;;;;;;7.28;5.10;;;16.40;99.90;;;;;;5085899;28;20124;-81
2022/09/09 07:56:11;;;;;;;;;;;16.50;99.90;;;;;;5052680;28;20041;-80
2022/09/09 07:58:38;;;;;;;7.37;5.20;;;16.70;99.90;;;;;;5068792;28;19917;-81
2022/09/09 08:01:08;;;;;;;6.88;5.00;;;16.90;99.90;;;;;;5052001;28;20283;-81
2022/09/09 08:03:34;;;;;;;6.38;4.90;;;17.00;99.90;;;;;;5068317;28;20045;-81
2022/09/09 08:06:06;;;;;;;5.15;4.45;;;17.10;99.90;;;;;;5084615;28;20498;-81
2022/09/09 08:08:31;;;;;;;6.22;4.68;;;17.20;99.90;;;;;;5068241;28;20071;-81
2022/09/09 08:11:07;;;;;;;6.57;4.88;;;17.30;99.90;;;;;;5068546;28;20044;-81
2022/09/09 08:13:34;;;;;;;7.43;4.32;;;17.30;99.90;;;;;;5085413;28;20059;-81
2022/09/09 08:16:12;;;;;;;6.18;4.40;;;17.30;99.90;;;;;;5068683;28;20037;-81
2022/09/09 08:18:38;;;;;;;7.65;5.07;;;17.40;99.90;;;;;;5051038;28;20043;-81
2022/09/09 08:21:08;;;;;;;;;;;17.60;99.90;;;;;;5085700;28;20092;-81
2022/09/09 08:23:34;;;;;;;6.35;4.07;;;17.70;99.90;;;;;;5051846;28;20374;-81
2022/09/09 08:26:13;;;;;;;5.72;4.07;;;17.80;99.90;;;;;;5068591;28;20044;-81
2022/09/09 08:28:40;;;;;;;9.07;4.50;;;17.90;99.90;;;;;;5068820;28;20487;-81
2022/09/09 08:31:16;;;;;;;7.82;4.32;;;18.10;99.90;;;;;;5052201;28;20395;-81
2022/09/09 08:33:45;;;;;;;7.30;4.22;;;18.10;99.90;;;;;;5089846;28;20128;-81
2022/09/09 08:36:15;;;;;;;6.35;4.32;;;18.10;99.90;;;;;;5089156;28;20044;-81
2022/09/09 08:38:47;;;;;;;7.40;4.80;;;18.10;99.90;;;;;;5072732;28;20394;-81
2022/09/09 08:41:36;;;;;;;5.35;4.00;;;18.00;99.90;;;;;;5089254;28;20052;-81
2022/09/09 08:44:14;;;;;;;7.72;4.50;;;18.10;99.90;;;;;;5089387;28;20041;-81
2022/09/09 08:47:06;;;;;;;4.75;3.78;;;18.20;99.90;;;;;;5072208;28;20040;-82
2022/09/09 08:49:50;;;;;;;5.47;4.00;;;18.60;99.90;;;;;;5071816;28;20033;-82
2022/09/09 08:52:21;;;;;;;5.45;3.80;;;18.80;99.90;;;;;;5071790;28;20041;-81
2022/09/09 08:54:47;;;;;;;5.40;3.63;;;18.80;99.90;;;;;;5088913;28;20494;-81
2022/09/09 08:57:26;;;;;;;5.60;3.67;;;18.80;99.90;;;;;;5055224;28;20040;-81
2022/09/09 08:59:55;;;;;;;6.60;3.80;;;18.80;99.90;;;;;;5071115;28;20053;-81
2022/09/09 09:02:29;;;;;;;6.07;3.67;;;18.80;99.90;;;;;;5054890;28;20055;-82
2022/09/09 09:05:49;;;;;;;5.45;3.45;;;18.70;99.90;;;;;;5088409;28;20132;-81
2022/09/09 09:08:30;;;;;;;8.00;3.42;;;18.60;99.90;;;;;;4998136;28;20124;-81
2022/09/09 09:11:00;;;;;;;4.35;3.28;;;18.60;99.90;;;;;;5048853;28;20379;-81
2022/09/09 09:13:37;;;;;;;6.05;3.35;;;18.70;99.90;;;;;;5071472;28;20128;-81
2022/09/09 09:16:25;;;;;;;6.90;3.35;;;19.10;99.90;;;;;;5071749;28;20128;-81
2022/09/09 09:18:52;;;;;;;6.78;3.65;;;19.80;99.90;;;;;;5071590;28;20127;-82
2022/09/09 09:21:29;;;;;;;6.70;3.10;;;20.10;99.90;;;;;;5054866;28;20497;-82
2022/09/09 09:24:00;;;;;;;6.50;3.15;;;20.10;99.90;;;;;;5054920;28;20037;-82
2022/09/09 09:26:35;;;;;;;5.47;2.80;;;20.30;99.90;;;;;;5054683;28;20483;-82
2022/09/09 09:29:12;;;;;;;6.53;3.28;;;20.50;99.90;;;;;;5054925;28;20041;-82
2022/09/09 09:31:37;;;;;;;5.57;3.20;;;21.10;99.90;;;;;;5071506;28;20037;-82
2022/09/09 09:34:03;;;;;;;6.88;2.80;;;21.60;99.90;;;;;;5072041;28;20474;-82
2022/09/09 09:36:56;;;;;;;4.93;2.65;;;21.60;99.90;;;;;;5071118;28;20513;-82
2022/09/09 09:39:29;;;;;;;7.32;2.70;;;21.70;99.90;;;;;;5052026;28;20053;-82
2022/09/09 09:41:57;;;;;;;5.15;2.47;;;21.60;99.90;;;;;;5071551;28;20124;-82
2022/09/09 09:44:31;;;;;;;4.90;2.47;;;21.30;99.90;;;;;;5069941;28;20068;-82
2022/09/09 09:47:15;;;;;;;10.40;2.90;;;21.30;99.90;;;;;;5054630;28;20080;-82
2022/09/09 09:49:59;;;;;;;6.78;2.88;;;21.60;99.90;;;;;;5054450;28;20120;-82
2022/09/09 09:52:35;;;;;;;9.25;3.10;;;21.90;99.90;;;;;;5070886;28;20037;-83
2022/09/09 09:55:04;;;;;;;6.45;2.90;;;22.20;99.90;;;;;;5054734;28;20103;-82
2022/09/09 09:57:31;;;;;;;8.30;3.15;;;22.00;99.90;;;;;;5071249;28;20398;-83
2022/09/09 10:00:05;;;;;;;4.82;2.38;;;21.70;99.90;;;;;;5087982;28;20136;-83
2022/09/09 10:02:39;;;;;;;5.90;2.65;;;21.50;99.90;;;;;;5088078;28;20041;-83
2022/09/09 10:05:27;;;;;;;5.63;2.47;;;21.20;99.90;;;;;;5054815;28;20458;-83
2022/09/09 10:08:11;;;;;;;7.07;2.40;;;20.90;99.90;;;;;;5053865;28;20095;-83
2022/09/09 10:10:57;;;;;;;6.63;2.28;;;21.10;99.90;;;;;;5054141;28;20044;-83
2022/09/09 10:13:27;;;;;;;6.38;2.17;;;21.60;99.90;;;;;;5053866;28;20106;-84
2022/09/09 10:16:26;;;;;;;7.82;2.25;;;21.70;99.90;;;;;;5070652;28;20049;-83
2022/09/09 10:19:08;;;;;;;8.45;2.08;;;21.60;99.90;;;;;;5042974;28;20049;-83
2022/09/09 10:21:49;;;;;;;7.38;1.80;;;21.40;99.90;;;;;;5070199;28;20052;-83
2022/09/09 10:24:56;;;;;;;7.03;2.13;;;21.30;99.90;;;;;;5087080;28;20045;-83
2022/09/09 10:27:33;;;;;;;7.75;1.70;;;22.00;99.90;;;;;;5041303;28;20116;-83
2022/09/09 10:30:24;;;;;;;7.95;2.20;;;22.30;99.90;;;;;;5087506;28;20049;-84
2022/09/09 10:33:10;;;;;;;7.30;1.70;;;22.00;99.90;;;;;;5070630;28;20120;-84
2022/09/09 10:35:52;;;;;;;3.80;1.20;;;21.70;99.90;;;;;;5053818;28;20064;-83
2022/09/09 10:38:36;;;;;;;5.93;1.52;;;21.80;99.90;;;;;;5087178;28;20319;-84
2022/09/09 10:41:39;;;;;;;6.30;1.48;;;22.00;99.90;;;;;;5054001;28;20036;-84
2022/09/09 10:44:18;;;;;;;4.47;1.45;;;22.20;99.90;;;;;;5086825;28;20037;-83
2022/09/09 10:46:55;;;;;;;4.90;1.20;;;21.90;99.90;;;;;;5070448;28;20494;-83
2022/09/09 10:49:30;;;;;;;5.68;1.40;;;21.70;99.90;;;;;;5070158;28;20040;-83
2022/09/09 10:52:34;;;;;;;5.68;1.35;;;21.90;99.90;;;;;;5069971;28;20036;-84
2022/09/09 10:55:09;;;;;;;6.70;1.73;;;22.40;99.90;;;;;;5053149;28;20044;-84
2022/09/09 10:57:43;;;;;;;3.92;1.20;;;23.00;99.90;;;;;;5069916;28;20037;-84
2022/09/09 11:00:22;;;;;;;6.55;1.83;;;23.10;99.90;;;;;;5069925;28;20123;-84
2022/09/09 11:02:58;;;;;;;3.38;1.00;;;23.10;99.90;;;;;;5069784;28;20033;-84
2022/09/09 11:05:47;;;;;;;3.70;0.98;;;23.10;99.90;;;;;;5052449;28;20033;-84
2022/09/09 11:08:25;;;;;;;4.45;1.00;;;23.20;99.90;;;;;;5052919;28;20037;-84
2022/09/09 11:11:03;;;;;;;5.80;1.00;;;23.20;99.90;;;;;;5069945;28;20040;-84
2022/09/09 11:13:55;;;;;;;4.15;0.90;;;23.30;99.90;;;;;;5052771;28;20099;-84
2022/09/09 11:16:45;;;;;;;7.72;1.13;;;23.20;99.90;;;;;;5069405;28;20040;-84
2022/09/09 11:19:21;;;;;;;5.60;1.08;;;23.70;99.90;;;;;;5058993;28;20090;-84
2022/09/09 11:21:51;;;;;;;3.78;0.95;;;24.10;99.90;;;;;;5055735;28;20108;-84
2022/09/09 11:24:36;;;;;;;3.65;0.80;;;24.60;99.90;;;;;;5072460;28;20396;-84
2022/09/09 11:27:17;;;;;;;4.03;1.17;;;24.50;99.90;;;;;;5039356;28;20484;-84
2022/09/09 11:30:19;;;;;;;3.40;0.85;;;24.60;99.90;;;;;;5072479;28;20050;-84
2022/09/09 11:32:57;;;;;;;6.10;1.08;;;24.80;99.90;;;;;;5039457;28;20042;-84
2022/09/09 11:35:43;;;;;;;4.05;1.00;;;25.30;99.90;;;;;;5039273;28;20396;-84
2022/09/09 11:38:28;;;;;;;7.22;1.20;;;25.40;99.90;;;;;;5023524;28;20050;-84
2022/09/09 11:41:09;;;;;;;3.63;1.13;;;25.50;99.90;;;;;;5055526;28;20050;-84
2022/09/09 11:43:38;;;;;;;4.72;1.35;;;25.40;99.90;;;;;;5055600;28;20996;-85
2022/09/09 11:46:04;;;;;;;8.70;1.27;;;24.90;99.90;;;;;;5038679;28;20039;-84
2022/09/09 11:48:33;;;;;;;;;;;24.20;99.90;;;;;;5039398;28;20046;-84
2022/09/09 11:51:07;;;;;;;4.07;1.00;;;23.80;99.90;;;;;;5055448;28;20311;-85
2022/09/09 11:53:34;;;;;;;3.50;1.10;;;23.60;99.90;;;;;;5072577;28;20110;-84
2022/09/09 11:56:09;;;;;;;4.00;0.95;;;23.40;99.90;;;;;;5055548;28;20046;-84
2022/09/09 11:58:41;;;;;;;5.43;1.38;;;23.70;99.90;;;;;;5055891;28;20046;-84
2022/09/09 12:01:38;;;;;;;4.68;1.30;;;23.50;99.90;;;;;;5038970;28;20500;-83
2022/09/09 12:04:30;;;;;;;5.80;1.10;;;23.40;99.90;;;;;;5038528;28;20047;-83
2022/09/09 12:07:09;;;;;;;4.75;1.10;;;23.10;99.90;;;;;;5054273;28;20489;-84
2022/09/09 12:09:41;;;;;;;4.25;1.33;;;23.00;99.90;;;;;;5038109;28;20038;-83
2022/09/09 12:12:15;;;;;;;7.28;1.15;;;23.00;99.90;;;;;;5038093;28;20515;-84
2022/09/09 12:14:41;;;;;;;4.38;1.35;;;23.00;99.90;;;;;;5054506;28;20049;-84
2022/09/09 12:17:16;;;;;;;5.45;1.20;;;23.10;99.90;;;;;;5038133;28;20129;-83
2022/09/09 12:19:44;;;;;;;5.40;0.90;;;23.40;99.90;;;;;;5037523;28;20055;-83
2022/09/09 12:22:54;;;;;;;5.55;0.90;;;23.40;99.90;;;;;;5054991;28;20043;-83
2022/09/09 12:25:29;;;;;;;3.22;0.80;;;23.20;99.90;;;;;;5023318;28;20055;-84
2022/09/09 12:28:01;;;;;;;4.15;1.00;;;23.10;99.90;;;;;;5038444;28;20038;-84
2022/09/09 12:30:39;;;;;;;4.72;0.90;;;22.90;99.90;;;;;;5038505;28;20074;-84
2022/09/09 12:33:15;;;;;;;6.35;1.13;;;22.90;99.90;;;;;;5055061;28;20043;-83
2022/09/09 12:35:43;;;;;;;;;;;22.80;99.90;;;;;;5055466;28;20070;-84
2022/09/09 12:38:19;;;;;;;5.50;1.20;;;22.80;99.90;;;;;;5055010;28;19918;-84
2022/09/09 12:40:57;;;;;;;4.65;1.00;;;23.00;99.90;;;;;;5038328;28;20156;-84
2022/09/09 12:43:25;;;;;;;4.15;0.90;;;23.00;99.90;;;;;;5071311;28;20050;-84
2022/09/09 12:45:57;;;;;;;4.10;0.90;;;22.80;99.90;;;;;;5072266;28;20038;-84
2022/09/09 12:48:34;;;;;;;4.00;1.10;;;22.80;99.90;;;;;;5038262;28;20039;-85
2022/09/09 12:51:01;;;;;;;4.65;1.33;;;22.70;99.90;;;;;;5071551;28;20070;-84
2022/09/09 12:53:34;;;;;;;7.18;1.50;;;22.80;99.90;;;;;;5037835;28;20043;-83
2022/09/09 12:56:04;;;;;;;5.78;1.10;;;22.90;99.90;;;;;;5071657;28;20054;-83
2022/09/09 12:58:34;;;;;;;5.70;1.05;;;23.10;99.90;;;;;;5071188;28;20054;-84
2022/09/09 13:01:04;;;;;;;4.18;1.00;;;23.20;99.90;;;;;;5037798;28;20054;-84
2022/09/09 13:03:31;;;;;;;4.72;1.00;;;23.30;99.90;;;;;;5037840;28;20078;-84
2022/09/09 13:06:18;;;;;;;3.58;1.00;;;23.30;99.90;;;;;;5021198;28;20043;-84
2022/09/09 13:08:44;;;;;;;;;;;23.20;99.90;;;;;;5055183;28;20039;-84
2022/09/09 13:11:16;;;;;;;5.47;1.00;;;22.90;99.90;;;;;;5037903;28;19925;-84
2022/09/09 13:13:43;;;;;;;4.22;1.10;;;23.00;99.90;;;;;;5071219;28;20131;-83
2022/09/09 13:16:26;;;;;;;3.35;1.02;;;23.00;99.90;;;;;;5037243;28;20054;-83